sensor_id;sensor_type;location;lat;lon;timestamp;P1;durP1;ratioP1;P2;durP2;ratioP2
25191;SDS011;13143;50.924;5.320;2023-05-16T00:01:59;27.00;;;4.82;;
25191;SDS011;13143;50.924;5.320;2023-05-16T00:04:33;27.92;;;4.00;;
25191;SDS011;13143;50.924;5.320;2023-05-16T00:07:05;25.00;;;3.92;;
25191;SDS011;13143;50.924;5.320;2023-05-16T00:09:38;24.88;;;4.32;;
25191;SDS011;13143;50.924;5.320;2023-05-16T00:15:16;23.77;;;4.03;;
25191;SDS011;13143;50.924;5.320;2023-05-16T00:17:54;30.77;;;4.35;;
25191;SDS011;13143;50.924;5.320;2023-05-16T00:20:29;25.33;;;4.10;;
25191;SDS011;13143;50.924;5.320;2023-05-16T00:22:56;30.40;;;4.60;;
25191;SDS011;13143;50.924;5.320;2023-05-16T00:25:32;28.00;;;4.32;;
25191;SDS011;13143;50.924;5.320;2023-05-16T00:28:02;27.75;;;4.35;;
25191;SDS011;13143;50.924;5.320;2023-05-16T00:30:37;24.90;;;3.80;;
25191;SDS011;13143;50.924;5.320;2023-05-16T00:33:27;19.70;;;3.58;;
25191;SDS011;13143;50.924;5.320;2023-05-16T00:36:02;26.58;;;4.30;;
25191;SDS011;13143;50.924;5.320;2023-05-16T00:38:34;29.33;;;3.88;;
25191;SDS011;13143;50.924;5.320;2023-05-16T00:41:12;28.23;;;4.55;;
25191;SDS011;13143;50.924;5.320;2023-05-16T00:43:59;20.00;;;4.63;;
25191;SDS011;13143;50.924;5.320;2023-05-16T00:46:31;22.88;;;3.97;;
25191;SDS011;13143;50.924;5.320;2023-05-16T00:49:00;25.90;;;4.13;;
25191;SDS011;13143;50.924;5.320;2023-05-16T00:51:36;21.33;;;3.47;;
25191;SDS011;13143;50.924;5.320;2023-05-16T00:54:13;22.30;;;4.25;;
25191;SDS011;13143;50.924;5.320;2023-05-16T00:56:39;26.77;;;4.15;;
25191;SDS011;13143;50.924;5.320;2023-05-16T00:59:38;28.75;;;3.90;;
25191;SDS011;13143;50.924;5.320;2023-05-16T01:02:07;34.33;;;3.67;;
25191;SDS011;13143;50.924;5.320;2023-05-16T01:04:45;23.45;;;3.80;;
25191;SDS011;13143;50.924;5.320;2023-05-16T01:07:30;32.97;;;3.65;;
25191;SDS011;13143;50.924;5.320;2023-05-16T01:10:05;31.48;;;4.78;;
25191;SDS011;13143;50.924;5.320;2023-05-16T01:15:31;19.70;;;3.42;;
25191;SDS011;13143;50.924;5.320;2023-05-16T01:18:41;22.00;;;3.60;;
25191;SDS011;13143;50.924;5.320;2023-05-16T01:24:26;23.90;;;4.10;;
25191;SDS011;13143;50.924;5.320;2023-05-16T01:27:03;23.55;;;4.18;;
25191;SDS011;13143;50.924;5.320;2023-05-16T01:29:33;29.90;;;4.43;;
25191;SDS011;13143;50.924;5.320;2023-05-16T01:32:00;21.83;;;3.92;;
25191;SDS011;13143;50.924;5.320;2023-05-16T01:34:44;26.02;;;4.68;;
25191;SDS011;13143;50.924;5.320;2023-05-16T01:40:18;29.77;;;4.22;;
25191;SDS011;13143;50.924;5.320;2023-05-16T01:42:59;22.40;;;3.22;;
25191;SDS011;13143;50.924;5.320;2023-05-16T01:45:33;30.35;;;3.55;;
25191;SDS011;13143;50.924;5.320;2023-05-16T01:48:06;35.17;;;4.07;;
25191;SDS011;13143;50.924;5.320;2023-05-16T01:50:38;23.80;;;3.90;;
25191;SDS011;13143;50.924;5.320;2023-05-16T01:53:11;23.25;;;3.75;;
25191;SDS011;13143;50.924;5.320;2023-05-16T01:55:48;25.10;;;3.30;;
25191;SDS011;13143;50.924;5.320;2023-05-16T01:58:20;30.15;;;4.25;;
25191;SDS011;13143;50.924;5.320;2023-05-16T02:00:52;20.50;;;3.35;;
25191;SDS011;13143;50.924;5.320;2023-05-16T02:03:25;17.45;;;2.92;;
25191;SDS011;13143;50.924;5.320;2023-05-16T02:06:00;28.92;;;4.07;;
25191;SDS011;13143;50.924;5.320;2023-05-16T02:08:27;24.88;;;4.25;;
25191;SDS011;13143;50.924;5.320;2023-05-16T02:10:54;31.77;;;3.13;;
25191;SDS011;13143;50.924;5.320;2023-05-16T02:13:20;28.77;;;4.28;;
25191;SDS011;13143;50.924;5.320;2023-05-16T02:15:47;24.60;;;3.63;;
25191;SDS011;13143;50.924;5.320;2023-05-16T02:18:13;27.20;;;3.92;;
25191;SDS011;13143;50.924;5.320;2023-05-16T02:20:39;24.17;;;3.30;;
25191;SDS011;13143;50.924;5.320;2023-05-16T02:23:09;19.25;;;3.60;;
25191;SDS011;13143;50.924;5.320;2023-05-16T02:25:41;29.95;;;3.45;;
25191;SDS011;13143;50.924;5.320;2023-05-16T02:28:25;19.55;;;2.95;;
25191;SDS011;13143;50.924;5.320;2023-05-16T02:31:01;30.42;;;3.97;;
25191;SDS011;13143;50.924;5.320;2023-05-16T02:33:39;28.00;;;4.07;;
25191;SDS011;13143;50.924;5.320;2023-05-16T02:36:14;30.48;;;4.00;;
25191;SDS011;13143;50.924;5.320;2023-05-16T02:38:52;17.38;;;3.55;;
25191;SDS011;13143;50.924;5.320;2023-05-16T02:41:28;30.92;;;4.40;;
25191;SDS011;13143;50.924;5.320;2023-05-16T02:43:57;21.65;;;3.30;;
25191;SDS011;13143;50.924;5.320;2023-05-16T02:46:32;23.73;;;3.42;;
25191;SDS011;13143;50.924;5.320;2023-05-16T02:49:16;22.48;;;3.17;;
25191;SDS011;13143;50.924;5.320;2023-05-16T02:54:38;24.98;;;4.18;;
25191;SDS011;13143;50.924;5.320;2023-05-16T02:57:05;20.63;;;3.35;;
25191;SDS011;13143;50.924;5.320;2023-05-16T02:59:44;25.20;;;3.25;;
25191;SDS011;13143;50.924;5.320;2023-05-16T03:02:13;18.80;;;3.33;;
25191;SDS011;13143;50.924;5.320;2023-05-16T03:04:57;23.38;;;3.90;;
25191;SDS011;13143;50.924;5.320;2023-05-16T03:07:29;24.15;;;3.22;;
25191;SDS011;13143;50.924;5.320;2023-05-16T03:09:55;22.30;;;3.50;;
25191;SDS011;13143;50.924;5.320;2023-05-16T03:12:24;29.50;;;3.15;;
25191;SDS011;13143;50.924;5.320;2023-05-16T03:15:15;22.92;;;3.50;;
25191;SDS011;13143;50.924;5.320;2023-05-16T03:17:47;28.45;;;4.68;;
25191;SDS011;13143;50.924;5.320;2023-05-16T03:23:19;22.77;;;3.53;;
25191;SDS011;13143;50.924;5.320;2023-05-16T03:25:48;19.98;;;3.38;;
25191;SDS011;13143;50.924;5.320;2023-05-16T03:28:20;26.38;;;4.28;;
25191;SDS011;13143;50.924;5.320;2023-05-16T03:31:09;16.00;;;2.50;;
25191;SDS011;13143;50.924;5.320;2023-05-16T03:33:39;15.32;;;3.10;;
25191;SDS011;13143;50.924;5.320;2023-05-16T03:36:17;22.13;;;2.97;;
25191;SDS011;13143;50.924;5.320;2023-05-16T03:38:55;22.30;;;3.83;;
25191;SDS011;13143;50.924;5.320;2023-05-16T03:41:43;21.92;;;2.83;;
25191;SDS011;13143;50.924;5.320;2023-05-16T03:44:11;25.48;;;3.72;;
25191;SDS011;13143;50.924;5.320;2023-05-16T03:46:38;22.10;;;3.80;;
25191;SDS011;13143;50.924;5.320;2023-05-16T03:49:07;24.45;;;2.90;;
25191;SDS011;13143;50.924;5.320;2023-05-16T03:51:39;19.67;;;3.10;;
25191;SDS011;13143;50.924;5.320;2023-05-16T03:54:06;19.50;;;3.42;;
25191;SDS011;13143;50.924;5.320;2023-05-16T03:56:35;32.88;;;3.67;;
25191;SDS011;13143;50.924;5.320;2023-05-16T03:59:02;22.92;;;3.30;;
25191;SDS011;13143;50.924;5.320;2023-05-16T04:01:28;22.23;;;4.05;;
25191;SDS011;13143;50.924;5.320;2023-05-16T04:03:55;20.00;;;3.40;;
25191;SDS011;13143;50.924;5.320;2023-05-16T04:06:21;23.15;;;3.33;;
25191;SDS011;13143;50.924;5.320;2023-05-16T04:08:50;18.75;;;3.20;;
25191;SDS011;13143;50.924;5.320;2023-05-16T04:11:44;26.77;;;2.92;;
25191;SDS011;13143;50.924;5.320;2023-05-16T04:14:10;24.23;;;3.58;;
25191;SDS011;13143;50.924;5.320;2023-05-16T04:16:57;18.33;;;3.10;;
25191;SDS011;13143;50.924;5.320;2023-05-16T04:19:26;23.08;;;3.50;;
25191;SDS011;13143;50.924;5.320;2023-05-16T04:21:52;24.23;;;2.97;;
25191;SDS011;13143;50.924;5.320;2023-05-16T04:24:27;19.15;;;2.53;;
25191;SDS011;13143;50.924;5.320;2023-05-16T04:27:06;18.60;;;3.42;;
25191;SDS011;13143;50.924;5.320;2023-05-16T04:29:47;25.17;;;4.00;;
25191;SDS011;13143;50.924;5.320;2023-05-16T04:32:13;23.27;;;3.40;;
25191;SDS011;13143;50.924;5.320;2023-05-16T04:34:46;25.15;;;3.38;;
25191;SDS011;13143;50.924;5.320;2023-05-16T04:37:42;22.95;;;3.10;;
25191;SDS011;13143;50.924;5.320;2023-05-16T04:40:09;21.27;;;3.50;;
25191;SDS011;13143;50.924;5.320;2023-05-16T04:42:39;25.90;;;3.65;;
25191;SDS011;13143;50.924;5.320;2023-05-16T04:45:31;19.90;;;3.17;;
25191;SDS011;13143;50.924;5.320;2023-05-16T04:48:07;23.05;;;3.28;;
25191;SDS011;13143;50.924;5.320;2023-05-16T04:50:33;30.95;;;3.45;;
25191;SDS011;13143;50.924;5.320;2023-05-16T04:53:06;21.92;;;3.80;;
25191;SDS011;13143;50.924;5.320;2023-05-16T04:55:45;21.15;;;3.72;;
25191;SDS011;13143;50.924;5.320;2023-05-16T04:58:12;22.55;;;3.63;;
25191;SDS011;13143;50.924;5.320;2023-05-16T05:00:44;21.48;;;4.00;;
25191;SDS011;13143;50.924;5.320;2023-05-16T05:03:27;23.10;;;3.67;;
25191;SDS011;13143;50.924;5.320;2023-05-16T05:06:23;25.45;;;4.30;;
25191;SDS011;13143;50.924;5.320;2023-05-16T05:08:58;23.63;;;3.35;;
25191;SDS011;13143;50.924;5.320;2023-05-16T05:11:42;27.73;;;3.53;;
25191;SDS011;13143;50.924;5.320;2023-05-16T05:14:15;23.42;;;3.55;;
25191;SDS011;13143;50.924;5.320;2023-05-16T05:16:41;24.40;;;3.70;;
25191;SDS011;13143;50.924;5.320;2023-05-16T05:21:57;23.23;;;3.38;;
25191;SDS011;13143;50.924;5.320;2023-05-16T05:24:29;22.58;;;3.22;;
25191;SDS011;13143;50.924;5.320;2023-05-16T05:27:08;28.48;;;3.90;;
25191;SDS011;13143;50.924;5.320;2023-05-16T05:29:46;21.70;;;3.70;;
25191;SDS011;13143;50.924;5.320;2023-05-16T05:32:15;25.77;;;4.15;;
25191;SDS011;13143;50.924;5.320;2023-05-16T05:35:00;21.58;;;3.50;;
25191;SDS011;13143;50.924;5.320;2023-05-16T05:37:32;18.20;;;3.20;;
25191;SDS011;13143;50.924;5.320;2023-05-16T05:40:11;21.88;;;3.30;;
25191;SDS011;13143;50.924;5.320;2023-05-16T05:42:55;22.35;;;4.05;;
25191;SDS011;13143;50.924;5.320;2023-05-16T05:48:15;24.50;;;3.58;;
25191;SDS011;13143;50.924;5.320;2023-05-16T05:50:59;24.85;;;3.72;;
25191;SDS011;13143;50.924;5.320;2023-05-16T05:53:28;23.27;;;3.80;;
25191;SDS011;13143;50.924;5.320;2023-05-16T05:56:00;18.77;;;2.88;;
25191;SDS011;13143;50.924;5.320;2023-05-16T05:58:27;22.45;;;3.72;;
25191;SDS011;13143;50.924;5.320;2023-05-16T06:01:14;25.48;;;3.20;;
25191;SDS011;13143;50.924;5.320;2023-05-16T06:03:51;22.98;;;3.05;;
25191;SDS011;13143;50.924;5.320;2023-05-16T06:06:26;27.70;;;3.85;;
25191;SDS011;13143;50.924;5.320;2023-05-16T06:08:53;19.23;;;4.15;;
25191;SDS011;13143;50.924;5.320;2023-05-16T06:11:37;21.58;;;3.00;;
25191;SDS011;13143;50.924;5.320;2023-05-16T06:14:10;24.52;;;3.70;;
25191;SDS011;13143;50.924;5.320;2023-05-16T06:16:37;34.88;;;4.43;;
25191;SDS011;13143;50.924;5.320;2023-05-16T06:19:24;17.33;;;3.05;;
25191;SDS011;13143;50.924;5.320;2023-05-16T06:21:59;29.33;;;3.35;;
25191;SDS011;13143;50.924;5.320;2023-05-16T06:24:34;17.38;;;3.10;;
25191;SDS011;13143;50.924;5.320;2023-05-16T06:27:07;23.27;;;4.13;;
25191;SDS011;13143;50.924;5.320;2023-05-16T06:29:54;18.75;;;3.35;;
25191;SDS011;13143;50.924;5.320;2023-05-16T06:32:35;18.10;;;2.85;;
25191;SDS011;13143;50.924;5.320;2023-05-16T06:35:02;23.10;;;3.00;;
25191;SDS011;13143;50.924;5.320;2023-05-16T06:37:43;28.05;;;3.13;;
25191;SDS011;13143;50.924;5.320;2023-05-16T06:40:21;17.92;;;3.08;;
25191;SDS011;13143;50.924;5.320;2023-05-16T06:42:56;25.50;;;3.97;;
25191;SDS011;13143;50.924;5.320;2023-05-16T06:45:32;22.80;;;2.92;;
25191;SDS011;13143;50.924;5.320;2023-05-16T06:48:01;33.92;;;3.45;;
25191;SDS011;13143;50.924;5.320;2023-05-16T06:50:47;21.08;;;2.95;;
25191;SDS011;13143;50.924;5.320;2023-05-16T06:53:20;20.98;;;3.38;;
25191;SDS011;13143;50.924;5.320;2023-05-16T06:55:49;18.38;;;2.78;;
25191;SDS011;13143;50.924;5.320;2023-05-16T06:58:28;22.35;;;3.60;;
25191;SDS011;13143;50.924;5.320;2023-05-16T07:00:58;18.67;;;2.88;;
25191;SDS011;13143;50.924;5.320;2023-05-16T07:03:28;20.25;;;3.35;;
25191;SDS011;13143;50.924;5.320;2023-05-16T07:05:54;16.13;;;2.83;;
25191;SDS011;13143;50.924;5.320;2023-05-16T07:08:24;23.45;;;3.03;;
25191;SDS011;13143;50.924;5.320;2023-05-16T07:10:50;14.20;;;2.58;;
25191;SDS011;13143;50.924;5.320;2023-05-16T07:13:17;15.43;;;2.25;;
25191;SDS011;13143;50.924;5.320;2023-05-16T07:15:43;12.20;;;2.17;;
25191;SDS011;13143;50.924;5.320;2023-05-16T07:21:01;18.30;;;2.47;;
25191;SDS011;13143;50.924;5.320;2023-05-16T07:23:33;12.63;;;2.30;;
25191;SDS011;13143;50.924;5.320;2023-05-16T07:26:00;12.35;;;3.38;;
25191;SDS011;13143;50.924;5.320;2023-05-16T07:31:13;16.42;;;2.67;;
25191;SDS011;13143;50.924;5.320;2023-05-16T07:33:45;11.25;;;2.78;;
25191;SDS011;13143;50.924;5.320;2023-05-16T07:36:19;13.10;;;2.58;;
25191;SDS011;13143;50.924;5.320;2023-05-16T07:39:03;13.98;;;2.80;;
25191;SDS011;13143;50.924;5.320;2023-05-16T07:41:32;20.33;;;2.70;;
25191;SDS011;13143;50.924;5.320;2023-05-16T07:44:01;15.55;;;2.50;;
25191;SDS011;13143;50.924;5.320;2023-05-16T07:47:13;17.35;;;2.60;;
25191;SDS011;13143;50.924;5.320;2023-05-16T07:49:36;13.27;;;2.60;;
25191;SDS011;13143;50.924;5.320;2023-05-16T07:52:05;14.98;;;3.15;;
25191;SDS011;13143;50.924;5.320;2023-05-16T07:54:49;16.35;;;2.47;;
25191;SDS011;13143;50.924;5.320;2023-05-16T07:57:15;20.05;;;2.78;;
25191;SDS011;13143;50.924;5.320;2023-05-16T07:59:47;8.32;;;2.05;;
25191;SDS011;13143;50.924;5.320;2023-05-16T08:02:27;15.68;;;2.20;;
25191;SDS011;13143;50.924;5.320;2023-05-16T08:04:55;12.95;;;2.17;;
25191;SDS011;13143;50.924;5.320;2023-05-16T08:07:34;12.80;;;2.30;;
25191;SDS011;13143;50.924;5.320;2023-05-16T08:10:27;14.20;;;2.08;;
25191;SDS011;13143;50.924;5.320;2023-05-16T08:12:54;14.50;;;1.92;;
25191;SDS011;13143;50.924;5.320;2023-05-16T08:15:30;15.00;;;1.67;;
25191;SDS011;13143;50.924;5.320;2023-05-16T08:18:11;7.78;;;1.75;;
25191;SDS011;13143;50.924;5.320;2023-05-16T08:20:43;9.35;;;1.95;;
25191;SDS011;13143;50.924;5.320;2023-05-16T08:23:32;11.93;;;2.47;;
25191;SDS011;13143;50.924;5.320;2023-05-16T08:26:01;11.43;;;1.73;;
25191;SDS011;13143;50.924;5.320;2023-05-16T08:28:39;19.70;;;2.40;;
25191;SDS011;13143;50.924;5.320;2023-05-16T08:31:18;9.55;;;1.73;;
25191;SDS011;13143;50.924;5.320;2023-05-16T08:33:45;13.60;;;2.08;;
25191;SDS011;13143;50.924;5.320;2023-05-16T08:36:15;7.60;;;1.73;;
25191;SDS011;13143;50.924;5.320;2023-05-16T08:41:40;8.15;;;1.55;;
25191;SDS011;13143;50.924;5.320;2023-05-16T08:44:20;8.80;;;1.50;;
25191;SDS011;13143;50.924;5.320;2023-05-16T08:46:52;11.43;;;1.63;;
25191;SDS011;13143;50.924;5.320;2023-05-16T08:49:40;11.13;;;1.80;;
25191;SDS011;13143;50.924;5.320;2023-05-16T08:52:16;7.68;;;1.70;;
25191;SDS011;13143;50.924;5.320;2023-05-16T08:55:03;7.13;;;2.08;;
25191;SDS011;13143;50.924;5.320;2023-05-16T08:57:30;13.00;;;1.70;;
25191;SDS011;13143;50.924;5.320;2023-05-16T08:59:58;8.07;;;1.80;;
25191;SDS011;13143;50.924;5.320;2023-05-16T09:02:26;7.30;;;2.20;;
25191;SDS011;13143;50.924;5.320;2023-05-16T09:04:59;14.02;;;2.03;;
25191;SDS011;13143;50.924;5.320;2023-05-16T09:07:28;14.73;;;2.05;;
25191;SDS011;13143;50.924;5.320;2023-05-16T09:09:54;7.68;;;2.10;;
25191;SDS011;13143;50.924;5.320;2023-05-16T09:12:47;12.10;;;2.28;;
25191;SDS011;13143;50.924;5.320;2023-05-16T09:15:25;24.88;;;3.90;;
25191;SDS011;13143;50.924;5.320;2023-05-16T09:18:19;9.57;;;1.83;;
25191;SDS011;13143;50.924;5.320;2023-05-16T09:20:52;12.65;;;2.05;;
25191;SDS011;13143;50.924;5.320;2023-05-16T09:23:24;10.23;;;2.10;;
25191;SDS011;13143;50.924;5.320;2023-05-16T09:25:54;15.77;;;1.73;;
25191;SDS011;13143;50.924;5.320;2023-05-16T09:28:22;11.25;;;1.88;;
25191;SDS011;13143;50.924;5.320;2023-05-16T09:30:50;11.93;;;2.05;;
25191;SDS011;13143;50.924;5.320;2023-05-16T09:33:18;7.50;;;1.65;;
25191;SDS011;13143;50.924;5.320;2023-05-16T09:35:57;11.77;;;1.95;;
25191;SDS011;13143;50.924;5.320;2023-05-16T09:38:25;6.53;;;1.42;;
25191;SDS011;13143;50.924;5.320;2023-05-16T09:40:53;11.90;;;1.70;;
25191;SDS011;13143;50.924;5.320;2023-05-16T09:43:24;11.10;;;1.70;;
25191;SDS011;13143;50.924;5.320;2023-05-16T09:45:51;6.38;;;1.23;;
25191;SDS011;13143;50.924;5.320;2023-05-16T09:48:21;6.35;;;1.73;;
25191;SDS011;13143;50.924;5.320;2023-05-16T09:51:06;15.68;;;2.17;;
25191;SDS011;13143;50.924;5.320;2023-05-16T09:53:35;7.82;;;1.02;;
25191;SDS011;13143;50.924;5.320;2023-05-16T09:56:07;12.13;;;2.10;;
25191;SDS011;13143;50.924;5.320;2023-05-16T09:58:39;6.57;;;1.48;;
25191;SDS011;13143;50.924;5.320;2023-05-16T10:01:27;8.88;;;1.30;;
25191;SDS011;13143;50.924;5.320;2023-05-16T10:03:57;10.00;;;1.77;;
25191;SDS011;13143;50.924;5.320;2023-05-16T10:06:30;7.82;;;2.00;;
25191;SDS011;13143;50.924;5.320;2023-05-16T10:09:15;7.75;;;1.70;;
25191;SDS011;13143;50.924;5.320;2023-05-16T10:11:44;11.15;;;1.70;;
25191;SDS011;13143;50.924;5.320;2023-05-16T10:14:16;9.85;;;1.92;;
25191;SDS011;13143;50.924;5.320;2023-05-16T10:17:11;10.23;;;1.60;;
25191;SDS011;13143;50.924;5.320;2023-05-16T10:19:40;12.27;;;2.08;;
25191;SDS011;13143;50.924;5.320;2023-05-16T10:22:13;10.32;;;1.75;;
25191;SDS011;13143;50.924;5.320;2023-05-16T10:27:31;8.27;;;1.63;;
25191;SDS011;13143;50.924;5.320;2023-05-16T10:29:58;12.90;;;1.92;;
25191;SDS011;13143;50.924;5.320;2023-05-16T10:32:48;13.40;;;1.67;;
25191;SDS011;13143;50.924;5.320;2023-05-16T10:35:19;10.15;;;1.88;;
25191;SDS011;13143;50.924;5.320;2023-05-16T10:37:49;17.90;;;2.83;;
25191;SDS011;13143;50.924;5.320;2023-05-16T10:40:19;8.80;;;1.87;;
25191;SDS011;13143;50.924;5.320;2023-05-16T10:43:00;10.75;;;1.90;;
25191;SDS011;13143;50.924;5.320;2023-05-16T10:45:41;12.88;;;2.20;;
25191;SDS011;13143;50.924;5.320;2023-05-16T10:48:27;7.93;;;1.55;;
25191;SDS011;13143;50.924;5.320;2023-05-16T10:51:37;9.77;;;1.75;;
25191;SDS011;13143;50.924;5.320;2023-05-16T10:53:50;11.60;;;2.13;;
25191;SDS011;13143;50.924;5.320;2023-05-16T10:56:21;9.90;;;1.85;;
25191;SDS011;13143;50.924;5.320;2023-05-16T10:58:49;10.63;;;1.80;;
25191;SDS011;13143;50.924;5.320;2023-05-16T11:17:07;6.60;;;1.35;;
25191;SDS011;13143;50.924;5.320;2023-05-16T11:19:44;7.40;;;1.48;;
25191;SDS011;13143;50.924;5.320;2023-05-16T11:27:45;7.60;;;1.30;;
25191;SDS011;13143;50.924;5.320;2023-05-16T11:30:13;7.90;;;1.25;;
25191;SDS011;13143;50.924;5.320;2023-05-16T11:32:42;8.50;;;1.77;;
25191;SDS011;13143;50.924;5.320;2023-05-16T11:35:22;8.10;;;1.35;;
25191;SDS011;13143;50.924;5.320;2023-05-16T11:37:48;4.63;;;1.35;;
25191;SDS011;13143;50.924;5.320;2023-05-16T11:40:20;6.20;;;0.98;;
25191;SDS011;13143;50.924;5.320;2023-05-16T11:43:16;6.05;;;1.92;;
25191;SDS011;13143;50.924;5.320;2023-05-16T11:45:53;6.50;;;1.60;;
25191;SDS011;13143;50.924;5.320;2023-05-16T11:48:41;5.50;;;1.88;;
25191;SDS011;13143;50.924;5.320;2023-05-16T11:51:08;7.57;;;1.60;;
25191;SDS011;13143;50.924;5.320;2023-05-16T11:53:37;6.10;;;1.35;;
25191;SDS011;13143;50.924;5.320;2023-05-16T11:56:05;4.20;;;1.30;;
25191;SDS011;13143;50.924;5.320;2023-05-16T11:58:39;7.10;;;0.93;;
25191;SDS011;13143;50.924;5.320;2023-05-16T12:01:06;8.93;;;1.40;;
25191;SDS011;13143;50.924;5.320;2023-05-16T12:03:34;6.72;;;1.20;;
25191;SDS011;13143;50.924;5.320;2023-05-16T12:06:01;8.77;;;1.27;;
25191;SDS011;13143;50.924;5.320;2023-05-16T12:08:28;6.82;;;1.55;;
25191;SDS011;13143;50.924;5.320;2023-05-16T12:10:55;7.95;;;1.58;;
25191;SDS011;13143;50.924;5.320;2023-05-16T12:13:24;4.88;;;1.13;;
25191;SDS011;13143;50.924;5.320;2023-05-16T12:15:53;4.32;;;1.10;;
25191;SDS011;13143;50.924;5.320;2023-05-16T12:18:20;7.53;;;1.55;;
25191;SDS011;13143;50.924;5.320;2023-05-16T12:20:51;9.15;;;1.75;;
25191;SDS011;13143;50.924;5.320;2023-05-16T12:23:24;9.57;;;1.77;;
25191;SDS011;13143;50.924;5.320;2023-05-16T12:25:52;5.40;;;1.42;;
25191;SDS011;13143;50.924;5.320;2023-05-16T12:28:40;10.60;;;1.63;;
25191;SDS011;13143;50.924;5.320;2023-05-16T12:31:28;16.03;;;2.07;;
25191;SDS011;13143;50.924;5.320;2023-05-16T12:34:04;5.00;;;1.42;;
25191;SDS011;13143;50.924;5.320;2023-05-16T12:36:51;9.90;;;2.05;;
25191;SDS011;13143;50.924;5.320;2023-05-16T12:39:21;8.40;;;1.80;;
25191;SDS011;13143;50.924;5.320;2023-05-16T12:41:54;9.30;;;1.98;;
25191;SDS011;13143;50.924;5.320;2023-05-16T12:44:20;7.97;;;2.27;;
25191;SDS011;13143;50.924;5.320;2023-05-16T12:46:48;8.60;;;1.85;;
25191;SDS011;13143;50.924;5.320;2023-05-16T12:49:22;11.38;;;1.83;;
25191;SDS011;13143;50.924;5.320;2023-05-16T12:51:57;10.25;;;1.90;;
25191;SDS011;13143;50.924;5.320;2023-05-16T12:54:52;8.52;;;1.63;;
25191;SDS011;13143;50.924;5.320;2023-05-16T12:57:30;5.90;;;1.80;;
25191;SDS011;13143;50.924;5.320;2023-05-16T13:00:03;6.07;;;1.70;;
25191;SDS011;13143;50.924;5.320;2023-05-16T13:02:32;6.05;;;1.80;;
25191;SDS011;13143;50.924;5.320;2023-05-16T13:04:59;10.13;;;1.73;;
25191;SDS011;13143;50.924;5.320;2023-05-16T13:07:35;8.10;;;1.80;;
25191;SDS011;13143;50.924;5.320;2023-05-16T13:10:08;4.43;;;1.27;;
25191;SDS011;13143;50.924;5.320;2023-05-16T13:12:39;8.90;;;2.00;;
25191;SDS011;13143;50.924;5.320;2023-05-16T13:15:06;9.02;;;2.20;;
25191;SDS011;13143;50.924;5.320;2023-05-16T13:17:37;5.22;;;1.80;;
25191;SDS011;13143;50.924;5.320;2023-05-16T13:20:04;5.22;;;1.52;;
25191;SDS011;13143;50.924;5.320;2023-05-16T13:22:34;9.80;;;1.92;;
25191;SDS011;13143;50.924;5.320;2023-05-16T13:25:04;6.95;;;1.50;;
25191;SDS011;13143;50.924;5.320;2023-05-16T13:27:37;6.47;;;1.83;;
25191;SDS011;13143;50.924;5.320;2023-05-16T13:30:06;12.00;;;2.05;;
25191;SDS011;13143;50.924;5.320;2023-05-16T13:32:39;4.82;;;1.98;;
25191;SDS011;13143;50.924;5.320;2023-05-16T13:35:24;7.50;;;2.17;;
25191;SDS011;13143;50.924;5.320;2023-05-16T13:37:53;6.40;;;2.53;;
25191;SDS011;13143;50.924;5.320;2023-05-16T13:40:23;7.63;;;1.92;;
25191;SDS011;13143;50.924;5.320;2023-05-16T13:42:59;8.30;;;2.08;;
25191;SDS011;13143;50.924;5.320;2023-05-16T13:45:30;5.72;;;2.03;;
25191;SDS011;13143;50.924;5.320;2023-05-16T13:48:41;9.07;;;2.33;;
25191;SDS011;13143;50.924;5.320;2023-05-16T13:51:07;7.50;;;1.70;;
25191;SDS011;13143;50.924;5.320;2023-05-16T13:53:38;8.10;;;1.73;;
25191;SDS011;13143;50.924;5.320;2023-05-16T13:56:08;6.70;;;1.95;;
25191;SDS011;13143;50.924;5.320;2023-05-16T13:58:46;5.90;;;1.83;;
25191;SDS011;13143;50.924;5.320;2023-05-16T14:04:11;7.95;;;1.63;;
25191;SDS011;13143;50.924;5.320;2023-05-16T14:06:40;7.30;;;2.10;;
25191;SDS011;13143;50.924;5.320;2023-05-16T14:09:10;6.70;;;1.75;;
25191;SDS011;13143;50.924;5.320;2023-05-16T14:11:46;4.15;;;1.90;;
25191;SDS011;13143;50.924;5.320;2023-05-16T14:14:21;6.43;;;2.47;;
25191;SDS011;13143;50.924;5.320;2023-05-16T14:16:51;9.30;;;2.10;;
25191;SDS011;13143;50.924;5.320;2023-05-16T14:19:23;7.82;;;1.85;;
25191;SDS011;13143;50.924;5.320;2023-05-16T14:22:01;6.95;;;1.90;;
25191;SDS011;13143;50.924;5.320;2023-05-16T14:24:28;5.75;;;1.67;;
25191;SDS011;13143;50.924;5.320;2023-05-16T14:27:00;6.95;;;1.65;;
25191;SDS011;13143;50.924;5.320;2023-05-16T14:29:26;7.65;;;1.85;;
25191;SDS011;13143;50.924;5.320;2023-05-16T14:31:55;8.07;;;2.55;;
25191;SDS011;13143;50.924;5.320;2023-05-16T14:34:21;12.02;;;2.80;;
25191;SDS011;13143;50.924;5.320;2023-05-16T14:36:48;6.10;;;2.17;;
25191;SDS011;13143;50.924;5.320;2023-05-16T14:39:15;7.18;;;1.98;;
25191;SDS011;13143;50.924;5.320;2023-05-16T14:41:42;7.25;;;1.90;;
25191;SDS011;13143;50.924;5.320;2023-05-16T14:44:08;5.53;;;1.60;;
25191;SDS011;13143;50.924;5.320;2023-05-16T14:46:34;9.07;;;1.98;;
25191;SDS011;13143;50.924;5.320;2023-05-16T14:49:00;7.88;;;2.28;;
25191;SDS011;13143;50.924;5.320;2023-05-16T14:51:27;12.57;;;1.70;;
25191;SDS011;13143;50.924;5.320;2023-05-16T14:53:53;8.98;;;2.05;;
25191;SDS011;13143;50.924;5.320;2023-05-16T14:56:19;7.05;;;2.17;;
25191;SDS011;13143;50.924;5.320;2023-05-16T14:59:01;7.03;;;2.13;;
25191;SDS011;13143;50.924;5.320;2023-05-16T15:01:37;5.68;;;1.77;;
25191;SDS011;13143;50.924;5.320;2023-05-16T15:04:03;5.95;;;2.28;;
25191;SDS011;13143;50.924;5.320;2023-05-16T15:06:35;10.73;;;1.80;;
25191;SDS011;13143;50.924;5.320;2023-05-16T15:09:11;10.18;;;2.05;;
25191;SDS011;13143;50.924;5.320;2023-05-16T15:12:10;7.68;;;2.10;;
25191;SDS011;13143;50.924;5.320;2023-05-16T15:14:36;6.75;;;1.58;;
25191;SDS011;13143;50.924;5.320;2023-05-16T15:17:08;7.40;;;2.10;;
25191;SDS011;13143;50.924;5.320;2023-05-16T15:19:40;7.30;;;2.13;;
25191;SDS011;13143;50.924;5.320;2023-05-16T15:22:19;10.10;;;2.10;;
25191;SDS011;13143;50.924;5.320;2023-05-16T15:25:06;5.90;;;1.90;;
25191;SDS011;13143;50.924;5.320;2023-05-16T15:27:33;8.27;;;2.40;;
25191;SDS011;13143;50.924;5.320;2023-05-16T15:30:10;8.45;;;1.65;;
25191;SDS011;13143;50.924;5.320;2023-05-16T15:32:48;10.80;;;2.10;;
25191;SDS011;13143;50.924;5.320;2023-05-16T15:35:18;7.63;;;2.57;;
25191;SDS011;13143;50.924;5.320;2023-05-16T15:38:08;5.93;;;2.00;;
25191;SDS011;13143;50.924;5.320;2023-05-16T15:40:45;6.75;;;2.05;;
25191;SDS011;13143;50.924;5.320;2023-05-16T15:43:23;6.13;;;1.90;;
25191;SDS011;13143;50.924;5.320;2023-05-16T15:45:56;9.20;;;1.63;;
25191;SDS011;13143;50.924;5.320;2023-05-16T15:48:22;6.13;;;1.88;;
25191;SDS011;13143;50.924;5.320;2023-05-16T15:51:19;9.57;;;1.70;;
25191;SDS011;13143;50.924;5.320;2023-05-16T15:53:44;11.95;;;2.10;;
25191;SDS011;13143;50.924;5.320;2023-05-16T15:56:12;6.72;;;1.67;;
25191;SDS011;13143;50.924;5.320;2023-05-16T15:58:41;5.20;;;1.45;;
25191;SDS011;13143;50.924;5.320;2023-05-16T16:01:14;6.47;;;1.70;;
25191;SDS011;13143;50.924;5.320;2023-05-16T16:03:46;8.45;;;2.28;;
25191;SDS011;13143;50.924;5.320;2023-05-16T16:06:18;10.07;;;2.30;;
25191;SDS011;13143;50.924;5.320;2023-05-16T16:09:19;8.52;;;1.88;;
25191;SDS011;13143;50.924;5.320;2023-05-16T16:11:49;6.38;;;2.10;;
25191;SDS011;13143;50.924;5.320;2023-05-16T16:14:23;8.18;;;2.03;;
25191;SDS011;13143;50.924;5.320;2023-05-16T16:16:58;11.27;;;1.70;;
25191;SDS011;13143;50.924;5.320;2023-05-16T16:19:37;9.30;;;1.80;;